Time;durP1;ratioP1;P1;durP2;ratioP2;P2;SDS_P1;SDS_P2;PMS_P1;PMS_P2;Temp;Humidity;BMP_temperature;BMP_pressure;BME280_temperature;BME280_humidity;BME280_pressure;Samples;Min_cycle;Max_cycle;Signal;HPM_P1;HPM_P2
2024/01/25 00:00:50;;;;;;;12.57;3.00;;;11.80;37.20;;;;;;10403791;28;20232;-81
2024/01/25 00:05:54;;;;;;;9.33;2.77;;;11.80;37.00;;;;;;10403188;28;20664;-81
2024/01/25 00:10:57;;;;;;;8.63;2.70;;;11.90;37.30;;;;;;10401596;28;20277;-81
2024/01/25 00:16:02;;;;;;;11.00;2.87;;;11.90;37.40;;;;;;10401008;28;20229;-80
2024/01/25 00:21:05;;;;;;;10.67;2.80;;;11.90;37.40;;;;;;10415258;28;20662;-80
2024/01/25 00:26:08;;;;;;;10.83;2.70;;;11.80;37.50;;;;;;10403904;28;20258;-81
2024/01/25 00:31:13;;;;;;;9.20;2.60;;;11.80;37.60;;;;;;10407854;28;20221;-81
2024/01/25 00:36:17;;;;;;;9.77;2.73;;;11.90;37.50;;;;;;10400202;28;20256;-81
2024/01/25 00:41:21;;;;;;;11.93;2.73;;;11.90;37.40;;;;;;10409229;28;20261;-81
2024/01/25 00:46:27;;;;;;;9.13;2.60;;;11.90;37.40;;;;;;10406503;28;20284;-81
2024/01/25 00:51:31;;;;;;;8.30;2.57;;;11.90;37.40;;;;;;10402477;28;20321;-80
2024/01/25 00:56:35;;;;;;;8.93;2.60;;;11.90;37.60;;;;;;10402537;28;21181;-80
2024/01/25 01:01:41;;;;;;;8.83;2.33;;;11.80;37.50;;;;;;10395805;28;20758;-81
2024/01/25 01:06:45;;;;;;;10.27;2.60;;;11.90;37.80;;;;;;10400232;28;20966;-81
2024/01/25 01:11:50;;;;;;;9.87;2.60;;;11.80;37.60;;;;;;10399323;28;20222;-81
2024/01/25 01:16:55;;;;;;;8.30;2.67;;;11.80;37.70;;;;;;10405536;28;20226;-81
2024/01/25 01:21:58;;;;;;;9.97;2.50;;;11.80;37.60;;;;;;10403965;28;20266;-81
2024/01/25 01:27:02;;;;;;;12.03;3.07;;;11.80;38.60;;;;;;10402298;28;20245;-80
2024/01/25 01:32:07;;;;;;;10.07;2.47;;;11.80;37.80;;;;;;10408734;28;20242;-81
2024/01/25 01:37:10;;;;;;;8.20;2.63;;;11.80;37.90;;;;;;10413797;28;20233;-81
2024/01/25 01:42:13;;;;;;;7.93;2.60;;;11.90;37.80;;;;;;10409842;28;20231;-81
2024/01/25 01:47:18;;;;;;;13.43;2.87;;;11.90;37.70;;;;;;10405514;28;20309;-81
2024/01/25 01:52:21;;;;;;;7.90;2.20;;;11.90;37.70;;;;;;10409498;28;20229;-81
2024/01/25 01:57:25;;;;;;;10.27;2.73;;;12.00;37.60;;;;;;10402446;28;20249;-81
2024/01/25 02:02:30;;;;;;;9.47;2.60;;;12.00;37.60;;;;;;10402640;28;20716;-81
2024/01/25 02:07:34;;;;;;;12.67;2.53;;;12.00;37.50;;;;;;10404939;28;20240;-81
2024/01/25 02:12:37;;;;;;;9.93;2.50;;;12.00;37.50;;;;;;10402523;28;20260;-81
2024/01/25 02:17:42;;;;;;;9.17;2.47;;;12.00;37.40;;;;;;10399234;28;20225;-81
2024/01/25 02:22:46;;;;;;;10.77;2.53;;;12.00;37.30;;;;;;10399244;28;20249;-81
2024/01/25 02:27:50;;;;;;;7.80;2.43;;;12.00;37.40;;;;;;10403622;28;20713;-81
2024/01/25 02:32:54;;;;;;;10.47;2.87;;;12.00;37.40;;;;;;10397394;28;20225;-81
2024/01/25 02:37:59;;;;;;;8.97;3.17;;;11.90;37.40;;;;;;10408757;28;20261;-81
2024/01/25 02:43:02;;;;;;;10.43;2.87;;;11.90;37.50;;;;;;10408625;28;20221;-80
2024/01/25 02:48:06;;;;;;;9.73;2.53;;;11.90;37.50;;;;;;10412517;28;20264;-80
2024/01/25 02:53:11;;;;;;;10.57;2.90;;;11.90;37.50;;;;;;10413494;28;20336;-81
2024/01/25 02:58:15;;;;;;;8.20;2.60;;;11.90;37.50;;;;;;10413683;28;20225;-80
2024/01/25 03:03:18;;;;;;;12.37;3.10;;;11.90;37.50;;;;;;10410342;28;20703;-81
2024/01/25 03:08:26;;;;;;;8.60;2.53;;;11.90;37.50;;;;;;10414924;28;20304;-81
2024/01/25 03:13:30;;;;;;;8.43;2.67;;;12.00;37.50;;;;;;10415301;28;20229;-80
2024/01/25 03:18:33;;;;;;;9.17;2.80;;;12.00;37.60;;;;;;10409872;28;20885;-81
2024/01/25 03:23:40;;;;;;;10.30;2.57;;;12.00;37.50;;;;;;10413087;28;20233;-81
2024/01/25 03:28:43;;;;;;;9.10;2.70;;;12.00;37.60;;;;;;10414825;28;20308;-81
2024/01/25 03:33:46;;;;;;;12.00;2.77;;;12.00;37.60;;;;;;10410817;28;20237;-80
2024/01/25 03:38:51;;;;;;;11.40;2.93;;;12.00;37.60;;;;;;10411595;28;20284;-81
2024/01/25 03:43:54;;;;;;;8.23;2.73;;;11.90;37.60;;;;;;10405368;28;20241;-81
2024/01/25 03:48:57;;;;;;;9.37;3.00;;;11.90;37.60;;;;;;10406664;28;20237;-80
2024/01/25 03:54:02;;;;;;;11.40;3.07;;;11.90;37.60;;;;;;10403476;28;20249;-81
2024/01/25 03:59:10;;;;;;;9.23;2.77;;;12.00;37.70;;;;;;10411989;28;20222;-81
2024/01/25 04:04:15;;;;;;;7.93;2.77;;;11.90;37.60;;;;;;10409253;28;20225;-81
2024/01/25 04:09:20;;;;;;;10.17;3.20;;;11.90;37.60;;;;;;10410284;28;20685;-81
2024/01/25 04:14:23;;;;;;;6.57;2.50;;;11.90;37.50;;;;;;10408336;28;20225;-80
2024/01/25 04:19:26;;;;;;;11.07;3.03;;;11.90;37.50;;;;;;10408610;28;20229;-81
2024/01/25 04:24:31;;;;;;;13.63;3.03;;;11.90;37.70;;;;;;10412258;28;20246;-81
2024/01/25 04:29:34;;;;;;;11.67;2.83;;;11.80;37.60;;;;;;10403646;28;20289;-81
2024/01/25 04:34:38;;;;;;;10.50;2.93;;;11.80;37.80;;;;;;10408558;28;20252;-80
2024/01/25 04:39:43;;;;;;;9.47;3.07;;;11.80;37.60;;;;;;10411071;28;20245;-81
2024/01/25 04:44:46;;;;;;;10.83;2.77;;;11.80;37.70;;;;;;10407702;28;20250;-80
2024/01/25 04:49:49;;;;;;;10.03;3.07;;;11.80;37.60;;;;;;10402622;28;20770;-81
2024/01/25 04:54:54;;;;;;;11.30;2.97;;;11.80;37.70;;;;;;10401997;28;20236;-81
2024/01/25 04:59:57;;;;;;;10.70;2.80;;;11.80;37.80;;;;;;10416867;28;20280;-81
2024/01/25 05:05:01;;;;;;;8.50;2.93;;;11.70;37.50;;;;;;10401059;28;20245;-80
2024/01/25 05:10:06;;;;;;;9.73;2.60;;;11.70;37.70;;;;;;10413155;28;20229;-80
2024/01/25 05:15:10;;;;;;;9.77;3.10;;;11.70;37.80;;;;;;10412661;28;20226;-80
2024/01/25 05:20:15;;;;;;;8.73;2.80;;;11.60;37.60;;;;;;10407932;28;20537;-80
2024/01/25 05:25:20;;;;;;;10.37;3.43;;;11.60;37.60;;;;;;10404461;28;20265;-80
2024/01/25 05:30:24;;;;;;;10.00;3.03;;;11.60;37.80;;;;;;10401890;28;20249;-80
2024/01/25 05:35:27;;;;;;;10.67;3.23;;;11.60;37.80;;;;;;10397714;28;20322;-81
2024/01/25 05:40:32;;;;;;;11.03;3.10;;;11.60;37.80;;;;;;10400414;28;20252;-80
2024/01/25 05:45:35;;;;;;;9.93;2.90;;;11.60;37.80;;;;;;10407210;28;20249;-80
2024/01/25 05:50:41;;;;;;;8.57;3.00;;;11.60;37.90;;;;;;10398385;28;20248;-80
2024/01/25 05:55:46;;;;;;;11.73;3.77;;;11.60;37.80;;;;;;10426157;28;20283;-76
2024/01/25 06:00:49;;;;;;;9.47;2.93;;;11.50;37.60;;;;;;10420577;28;20280;-76
2024/01/25 06:05:52;;;;;;;11.47;3.17;;;11.60;37.70;;;;;;10399800;28;20317;-76
2024/01/25 06:10:57;;;;;;;12.37;3.43;;;11.50;37.70;;;;;;10407345;28;20272;-76
2024/01/25 06:16:01;;;;;;;13.00;3.27;;;11.50;37.70;;;;;;10395087;28;20753;-77
2024/01/25 06:21:04;;;;;;;13.40;3.70;;;11.50;37.90;;;;;;10385100;28;20252;-75
2024/01/25 06:26:09;;;;;;;11.97;3.20;;;11.40;37.70;;;;;;10406546;28;20241;-75
2024/01/25 06:31:12;;;;;;;9.60;2.83;;;11.40;37.70;;;;;;10387426;28;20670;-75
2024/01/25 06:36:17;;;;;;;10.50;3.03;;;11.40;37.50;;;;;;10392006;28;21036;-75
2024/01/25 06:41:22;;;;;;;11.07;3.37;;;11.40;37.60;;;;;;10391162;28;20254;-75
2024/01/25 06:46:25;;;;;;;14.10;3.60;;;11.30;37.50;;;;;;10395361;28;20233;-76
2024/01/25 06:51:28;;;;;;;14.53;3.60;;;11.20;37.60;;;;;;10394123;28;20284;-75
2024/01/25 06:56:34;;;;;;;10.57;3.33;;;11.20;37.70;;;;;;10391084;28;20241;-76
2024/01/25 07:01:37;;;;;;;12.00;3.00;;;11.20;37.70;;;;;;10382069;28;20340;-75
2024/01/25 07:06:41;;;;;;;10.73;3.63;;;11.20;37.70;;;;;;10388528;28;20243;-75
2024/01/25 07:11:46;;;;;;;14.13;3.80;;;11.10;37.60;;;;;;10391724;28;20372;-77
2024/01/25 07:16:51;;;;;;;13.60;3.33;;;11.10;37.70;;;;;;10388985;28;20705;-76
2024/01/25 07:21:54;;;;;;;10.27;3.40;;;11.10;37.80;;;;;;10380200;28;20531;-76
2024/01/25 07:26:59;;;;;;;12.17;3.20;;;11.00;37.80;;;;;;10388538;28;20300;-76
2024/01/25 07:32:03;;;;;;;13.27;3.10;;;11.00;37.80;;;;;;10398994;28;20222;-77
2024/01/25 07:37:06;;;;;;;11.40;3.57;;;11.00;37.80;;;;;;10392704;28;20788;-77
2024/01/25 07:42:11;;;;;;;11.43;3.17;;;10.90;37.70;;;;;;10398352;28;20247;-76
2024/01/25 07:47:14;;;;;;;16.47;3.77;;;10.90;37.70;;;;;;10403087;28;20251;-77
2024/01/25 07:52:18;;;;;;;13.23;3.50;;;10.90;37.80;;;;;;10396931;28;20683;-78
2024/01/25 07:57:22;;;;;;;12.10;3.30;;;10.80;37.90;;;;;;10400488;28;20701;-77
2024/01/25 08:02:26;;;;;;;13.03;3.10;;;10.80;37.90;;;;;;10406142;28;20300;-76
2024/01/25 08:07:29;;;;;;;12.47;3.17;;;10.90;37.90;;;;;;10409900;28;20758;-77
2024/01/25 08:12:34;;;;;;;10.60;3.07;;;10.90;38.20;;;;;;10406258;28;20597;-77
2024/01/25 08:17:38;;;;;;;14.53;3.37;;;11.00;38.30;;;;;;10401391;28;20713;-77
2024/01/25 08:22:42;;;;;;;11.33;3.13;;;11.10;38.10;;;;;;10405266;28;20308;-77
2024/01/25 08:27:46;;;;;;;13.50;3.90;;;11.20;38.10;;;;;;10400374;28;20225;-77
2024/01/25 08:32:51;;;;;;;12.30;3.67;;;11.30;38.00;;;;;;10402723;28;20264;-77
2024/01/25 08:37:54;;;;;;;10.80;3.00;;;11.40;38.00;;;;;;10403328;28;20225;-77
2024/01/25 08:42:59;;;;;;;11.60;3.30;;;11.50;38.20;;;;;;10397517;28;20256;-76
2024/01/25 08:48:02;;;;;;;10.77;3.37;;;11.60;37.90;;;;;;10401904;28;20221;-76
2024/01/25 08:53:06;;;;;;;9.40;3.30;;;11.80;38.10;;;;;;10402945;28;20230;-77
2024/01/25 08:58:10;;;;;;;14.40;3.30;;;11.90;38.00;;;;;;10402595;28;20225;-77
2024/01/25 09:03:14;;;;;;;9.47;2.93;;;12.00;37.50;;;;;;10397308;28;20241;-77
2024/01/25 09:08:18;;;;;;;12.17;3.70;;;12.10;37.40;;;;;;10419398;28;20308;-77
2024/01/25 09:13:22;;;;;;;10.03;3.20;;;12.20;36.80;;;;;;10406507;28;20226;-77
2024/01/25 09:18:26;;;;;;;13.07;3.47;;;12.10;36.70;;;;;;10404751;28;20276;-78
2024/01/25 09:23:30;;;;;;;12.73;3.47;;;12.10;36.80;;;;;;10418032;28;20232;-78
2024/01/25 09:28:34;;;;;;;13.30;3.60;;;12.10;36.60;;;;;;10409689;28;20232;-78
2024/01/25 09:33:38;;;;;;;15.37;3.80;;;12.10;36.10;;;;;;10398855;28;20229;-78
2024/01/25 09:38:42;;;;;;;10.17;2.90;;;12.10;36.50;;;;;;10407531;28;20225;-76
2024/01/25 09:43:47;;;;;;;14.07;3.63;;;12.10;36.70;;;;;;10407494;28;20762;-78
2024/01/25 09:48:50;;;;;;;12.03;3.53;;;12.10;36.30;;;;;;10394830;28;20268;-77
2024/01/25 09:53:56;;;;;;;15.10;3.50;;;12.10;36.60;;;;;;10397626;28;20599;-76
2024/01/25 09:59:01;;;;;;;13.63;3.80;;;12.10;36.50;;;;;;10397130;28;20222;-77
2024/01/25 10:04:07;;;;;;;12.50;3.50;;;12.10;36.30;;;;;;10401106;28;20233;-77
2024/01/25 10:09:14;;;;;;;13.17;3.47;;;12.10;36.60;;;;;;10402860;28;20241;-76
2024/01/25 10:14:18;;;;;;;11.30;3.57;;;12.10;36.40;;;;;;10397684;28;20313;-76
2024/01/25 10:19:22;;;;;;;11.87;3.63;;;12.10;35.70;;;;;;10379766;28;20234;-77
2024/01/25 10:24:25;;;;;;;11.90;3.30;;;12.10;35.90;;;;;;10395014;28;20249;-76
2024/01/25 10:29:30;;;;;;;10.73;3.20;;;12.00;35.60;;;;;;10382410;28;20766;-76
2024/01/25 10:34:36;;;;;;;12.63;3.33;;;12.00;35.40;;;;;;10377173;28;20222;-76
2024/01/25 10:39:40;;;;;;;15.07;3.50;;;12.00;35.60;;;;;;10394271;28;20233;-76
2024/01/25 10:44:46;;;;;;;13.27;3.23;;;12.00;35.40;;;;;;10387173;28;20230;-78
2024/01/25 10:49:50;;;;;;;13.80;3.47;;;12.00;35.20;;;;;;10389990;28;20221;-76
2024/01/25 10:54:54;;;;;;;12.37;3.30;;;12.20;35.70;;;;;;10401850;28;20233;-75
2024/01/25 10:59:58;;;;;;;11.77;3.07;;;12.30;35.70;;;;;;10395177;28;20233;-75
2024/01/25 11:05:03;;;;;;;12.17;2.97;;;12.30;35.80;;;;;;10403293;28;20221;-77
2024/01/25 11:10:11;;;;;;;8.80;3.10;;;12.40;35.90;;;;;;10399993;28;20585;-77
2024/01/25 11:15:23;;;;;;;11.13;3.30;;;12.50;35.30;;;;;;10409326;28;20299;-77
2024/01/25 11:20:27;;;;;;;13.60;3.20;;;12.60;33.90;;;;;;10403130;28;20233;-76
2024/01/25 11:25:32;;;;;;;9.50;3.20;;;12.60;34.60;;;;;;10391595;28;20232;-76
2024/01/25 11:30:37;;;;;;;10.60;3.20;;;12.50;35.20;;;;;;10401872;28;20222;-76
2024/01/25 11:35:42;;;;;;;11.23;3.23;;;12.60;35.00;;;;;;10409447;28;20739;-75
2024/01/25 11:40:45;;;;;;;10.50;3.40;;;12.60;35.20;;;;;;10413365;28;20328;-75
2024/01/25 11:45:50;;;;;;;10.43;2.97;;;12.70;34.60;;;;;;10412743;28;20232;-77
2024/01/25 11:50:54;;;;;;;9.10;3.03;;;12.70;34.00;;;;;;10406068;28;20596;-77
2024/01/25 11:55:58;;;;;;;11.30;2.83;;;12.70;33.70;;;;;;10406783;28;20319;-77
2024/01/25 12:01:07;;;;;;;13.67;3.30;;;12.60;33.70;;;;;;10410575;28;20312;-78
2024/01/25 12:06:11;;;;;;;12.40;3.10;;;12.60;33.00;;;;;;10413433;28;20324;-77
2024/01/25 12:11:15;;;;;;;11.53;3.23;;;12.60;34.20;;;;;;10412425;28;20253;-77
2024/01/25 12:16:20;;;;;;;11.63;3.47;;;12.70;34.40;;;;;;10412569;28;20276;-77
2024/01/25 12:21:24;;;;;;;9.10;3.40;;;12.70;34.30;;;;;;10391791;28;20250;-77
2024/01/25 12:26:27;;;;;;;9.57;2.70;;;12.80;33.80;;;;;;10422880;28;20603;-77
2024/01/25 12:31:32;;;;;;;14.70;5.30;;;12.90;34.10;;;;;;10422392;28;20305;-77
2024/01/25 12:36:35;;;;;;;13.13;4.20;;;12.90;33.80;;;;;;10406386;28;20240;-77
2024/01/25 12:41:39;;;;;;;10.63;3.53;;;12.90;34.30;;;;;;10410557;28;20216;-77
2024/01/25 12:46:44;;;;;;;12.40;3.30;;;13.00;34.30;;;;;;10411117;28;20237;-75
2024/01/25 12:51:48;;;;;;;10.47;3.23;;;13.00;33.80;;;;;;10406951;28;20308;-76
2024/01/25 12:56:54;;;;;;;9.73;3.00;;;13.00;34.10;;;;;;10398432;28;20285;-76
2024/01/25 13:01:59;;;;;;;9.57;3.00;;;13.00;33.90;;;;;;10373871;28;20226;-76
2024/01/25 13:07:02;;;;;;;10.50;2.70;;;13.00;33.80;;;;;;10365895;28;20321;-75
2024/01/25 13:12:06;;;;;;;8.43;2.73;;;12.90;34.10;;;;;;10385594;28;20233;-75
2024/01/25 13:17:10;;;;;;;10.37;3.10;;;12.90;34.20;;;;;;10403304;28;20258;-75
2024/01/25 13:22:14;;;;;;;11.73;3.07;;;12.90;34.00;;;;;;10395240;28;20246;-75
2024/01/25 13:27:17;;;;;;;11.77;3.30;;;12.90;33.90;;;;;;10406610;28;20324;-75
2024/01/25 13:32:22;;;;;;;7.63;2.77;;;12.90;34.00;;;;;;10410520;28;20437;-76
2024/01/25 13:37:25;;;;;;;9.33;2.73;;;12.90;33.60;;;;;;10405797;28;20595;-77
2024/01/25 13:42:28;;;;;;;8.07;2.87;;;13.00;33.90;;;;;;10384128;28;20278;-76
2024/01/25 13:47:32;;;;;;;9.67;3.10;;;13.00;33.90;;;;;;10375973;28;20739;-76
2024/01/25 13:52:36;;;;;;;9.33;2.90;;;13.00;33.40;;;;;;10405585;28;20603;-76
2024/01/25 13:57:39;;;;;;;11.30;2.90;;;13.00;33.20;;;;;;10402038;28;20249;-76
2024/01/25 14:02:45;;;;;;;11.40;3.30;;;13.10;33.70;;;;;;10434215;28;20233;-74
2024/01/25 14:07:48;;;;;;;9.00;3.00;;;13.00;33.00;;;;;;10425489;28;20320;-75
2024/01/25 14:12:52;;;;;;;12.03;3.10;;;13.10;33.40;;;;;;10388878;28;20333;-78
2024/01/25 14:17:57;;;;;;;8.57;3.17;;;13.10;33.40;;;;;;10368544;28;20226;-75
2024/01/25 14:23:00;;;;;;;9.07;2.90;;;13.10;33.10;;;;;;10389686;28;20295;-75
2024/01/25 14:28:04;;;;;;;10.03;3.03;;;13.10;33.50;;;;;;10405886;28;20227;-74
2024/01/25 14:33:09;;;;;;;9.70;2.80;;;13.10;33.50;;;;;;10376038;28;20247;-74
2024/01/25 14:38:13;;;;;;;6.97;2.67;;;13.10;33.30;;;;;;10364586;28;20230;-74
2024/01/25 14:43:16;;;;;;;10.07;3.23;;;13.10;33.60;;;;;;10392364;28;20245;-75
2024/01/25 14:48:20;;;;;;;9.77;3.13;;;13.10;33.70;;;;;;10404620;28;20661;-74
2024/01/25 14:53:24;;;;;;;10.07;3.50;;;13.20;33.40;;;;;;10404914;28;20602;-74
2024/01/25 14:58:28;;;;;;;10.37;3.47;;;13.20;33.70;;;;;;10404464;28;20734;-74
2024/01/25 15:03:33;;;;;;;8.13;3.43;;;13.10;33.60;;;;;;10392055;28;20229;-75
2024/01/25 15:08:36;;;;;;;11.90;4.07;;;13.10;33.70;;;;;;10396478;28;20278;-75
2024/01/25 15:13:40;;;;;;;11.70;3.70;;;13.00;33.90;;;;;;10389234;28;20251;-74
2024/01/25 15:18:44;;;;;;;9.30;4.03;;;13.00;33.90;;;;;;10399937;28;20218;-75
2024/01/25 15:23:48;;;;;;;9.33;3.53;;;13.00;33.70;;;;;;10386797;28;20225;-75
2024/01/25 15:28:52;;;;;;;8.67;3.20;;;13.00;33.90;;;;;;10389383;28;20242;-75
2024/01/25 15:33:56;;;;;;;8.80;3.53;;;12.90;33.80;;;;;;10405253;28;20233;-76
2024/01/25 15:39:03;;;;;;;9.17;3.70;;;12.90;34.00;;;;;;10405734;28;20225;-77
2024/01/25 15:44:06;;;;;;;11.77;5.00;;;12.90;34.50;;;;;;10405909;28;20244;-77
2024/01/25 15:49:10;;;;;;;21.50;13.17;;;13.00;34.00;;;;;;10409763;28;20316;-77
2024/01/25 15:54:14;;;;;;;29.77;14.20;;;13.00;33.60;;;;;;10412157;28;20324;-78
2024/01/25 15:59:17;;;;;;;31.30;17.33;;;13.00;33.70;;;;;;10412695;28;20229;-77
2024/01/25 16:04:21;;;;;;;26.13;12.17;;;13.00;34.10;;;;;;10414330;28;20983;-77
2024/01/25 16:09:25;;;;;;;21.13;12.17;;;12.90;34.60;;;;;;10413873;28;20256;-77
2024/01/25 16:14:28;;;;;;;14.53;8.30;;;12.90;34.10;;;;;;10413737;28;20237;-77
2024/01/25 16:19:32;;;;;;;12.97;6.40;;;13.00;34.20;;;;;;10413933;28;20297;-78
2024/01/25 16:24:36;;;;;;;9.07;5.13;;;13.00;34.10;;;;;;10412628;28;20255;-78
2024/01/25 16:29:39;;;;;;;14.20;5.27;;;13.00;34.10;;;;;;10411436;28;20249;-77
2024/01/25 16:34:44;;;;;;;10.80;4.20;;;13.00;34.30;;;;;;10412753;28;20231;-77
2024/01/25 16:39:47;;;;;;;11.23;3.70;;;13.10;34.10;;;;;;10411261;28;20633;-78
2024/01/25 16:44:50;;;;;;;11.47;4.90;;;13.10;34.10;;;;;;10410903;28;20230;-77
2024/01/25 16:49:55;;;;;;;10.93;4.83;;;13.00;34.10;;;;;;10411806;28;20591;-78
2024/01/25 16:54:59;;;;;;;8.23;3.80;;;13.10;33.90;;;;;;10403689;28;20782;-78
2024/01/25 17:00:03;;;;;;;8.57;4.00;;;13.00;33.70;;;;;;10405748;28;20754;-74
2024/01/25 17:05:07;;;;;;;10.33;4.20;;;12.90;33.80;;;;;;10432929;28;20237;-77
2024/01/25 17:10:11;;;;;;;9.90;5.50;;;12.80;33.50;;;;;;10447453;28;20642;-78
2024/01/25 17:15:15;;;;;;;12.70;8.10;;;12.70;33.70;;;;;;10407624;28;20299;-78
2024/01/25 17:20:21;;;;;;;16.83;9.50;;;12.60;33.70;;;;;;10407870;28;20236;-78
2024/01/25 17:25:25;;;;;;;15.77;9.50;;;12.50;33.60;;;;;;10407208;28;20896;-78
2024/01/25 17:30:28;;;;;;;12.23;7.97;;;12.30;33.70;;;;;;10407995;28;20308;-78
2024/01/25 17:35:33;;;;;;;12.87;8.10;;;12.20;34.00;;;;;;10408553;28;20239;-77
2024/01/25 17:40:36;;;;;;;16.77;7.63;;;12.10;34.10;;;;;;10408161;28;20742;-78
2024/01/25 17:45:39;;;;;;;15.20;7.47;;;12.00;33.90;;;;;;10442531;28;20319;-78
2024/01/25 17:50:44;;;;;;;11.90;6.77;;;11.90;34.10;;;;;;10386715;28;20225;-76
2024/01/25 17:55:47;;;;;;;14.00;8.87;;;11.90;34.20;;;;;;10398189;28;20252;-78
2024/01/25 18:00:51;;;;;;;14.73;8.17;;;11.90;34.20;;;;;;10403488;28;20304;-76
2024/01/25 18:05:56;;;;;;;13.30;7.13;;;11.80;34.10;;;;;;10401176;28;20237;-77
2024/01/25 18:11:00;;;;;;;13.37;6.43;;;11.80;34.30;;;;;;10403644;28;20235;-77
2024/01/25 18:16:04;;;;;;;9.60;6.20;;;11.70;34.20;;;;;;10389547;28;20234;-77
2024/01/25 18:21:09;;;;;;;19.80;11.03;;;11.60;34.20;;;;;;10379385;28;20316;-77
2024/01/25 18:26:12;;;;;;;16.53;8.23;;;11.50;34.10;;;;;;10379301;28;20317;-77
2024/01/25 18:31:15;;;;;;;10.30;7.07;;;11.20;34.20;;;;;;10378433;28;20242;-77
2024/01/25 18:36:20;;;;;;;16.07;11.70;;;11.10;34.50;;;;;;10404696;28;20253;-77
2024/01/25 18:41:23;;;;;;;26.80;14.50;;;11.00;34.80;;;;;;10405233;28;20229;-77
2024/01/25 18:46:26;;;;;;;18.40;12.43;;;11.00;34.80;;;;;;10404125;28;20233;-75
2024/01/25 18:51:31;;;;;;;23.30;15.03;;;11.00;34.80;;;;;;10396091;28;20241;-75
2024/01/25 18:56:35;;;;;;;15.97;11.10;;;10.90;34.90;;;;;;10403422;28;20236;-75
2024/01/25 19:01:39;;;;;;;14.03;9.40;;;11.00;34.90;;;;;;10403531;28;20268;-75
2024/01/25 19:06:50;;;;;;;13.03;8.10;;;11.00;35.00;;;;;;10402811;28;20229;-75
2024/01/25 19:11:54;;;;;;;15.87;10.23;;;11.00;35.20;;;;;;10403241;28;20644;-74
2024/01/25 19:16:58;;;;;;;19.03;12.43;;;11.00;35.00;;;;;;10442262;28;20229;-75
2024/01/25 19:22:02;;;;;;;17.50;11.47;;;11.00;34.90;;;;;;10448184;28;20681;-74
2024/01/25 19:27:06;;;;;;;13.93;9.50;;;11.00;35.10;;;;;;10453433;28;20233;-74
2024/01/25 19:32:09;;;;;;;17.47;12.00;;;11.00;34.90;;;;;;10453314;28;20303;-75
2024/01/25 19:37:14;;;;;;;11.03;9.17;;;10.90;34.90;;;;;;10416035;28;20272;-78
2024/01/25 19:42:18;;;;;;;13.90;8.37;;;10.90;35.10;;;;;;10402842;28;20241;-78
2024/01/25 19:47:22;;;;;;;13.50;8.17;;;10.80;35.10;;;;;;10412073;28;20603;-78
2024/01/25 19:52:26;;;;;;;11.93;7.60;;;10.80;35.10;;;;;;10408108;28;20225;-76
2024/01/25 19:57:30;;;;;;;11.03;7.10;;;10.80;35.20;;;;;;10396176;28;20218;-77
2024/01/25 20:02:34;;;;;;;12.67;7.33;;;10.80;35.20;;;;;;10401768;28;20261;-76
2024/01/25 20:07:40;;;;;;;12.90;6.77;;;10.70;35.20;;;;;;10390042;28;20599;-77
2024/01/25 20:12:43;;;;;;;12.77;7.00;;;10.70;35.40;;;;;;10389355;28;20273;-77
2024/01/25 20:17:47;;;;;;;10.47;6.83;;;10.60;35.20;;;;;;10400216;28;20232;-79
2024/01/25 20:22:52;;;;;;;9.90;6.27;;;10.60;35.20;;;;;;10449132;28;20237;-77
2024/01/25 20:27:56;;;;;;;14.80;9.57;;;10.60;35.40;;;;;;10442182;28;20226;-77
2024/01/25 20:32:59;;;;;;;17.10;8.90;;;10.60;35.30;;;;;;10406072;28;20229;-78
2024/01/25 20:38:04;;;;;;;14.67;9.43;;;10.50;35.30;;;;;;10388205;28;20609;-76
2024/01/25 20:43:07;;;;;;;10.60;8.53;;;10.50;35.60;;;;;;10408040;28;20613;-76
2024/01/25 20:48:11;;;;;;;14.67;9.27;;;10.40;35.50;;;;;;10405972;28;20222;-77
2024/01/25 20:53:17;;;;;;;13.13;9.13;;;10.40;35.60;;;;;;10402989;28;20241;-76
2024/01/25 20:58:20;;;;;;;13.33;9.30;;;10.40;35.70;;;;;;10401505;28;20670;-76
2024/01/25 21:03:25;;;;;;;14.80;8.47;;;10.40;35.60;;;;;;10406018;28;20299;-77
2024/01/25 21:08:30;;;;;;;14.20;8.50;;;10.40;35.80;;;;;;10387024;28;20259;-77
2024/01/25 21:13:34;;;;;;;12.50;8.03;;;10.40;35.90;;;;;;10390412;28;20321;-77
2024/01/25 21:18:37;;;;;;;15.30;10.40;;;10.30;35.60;;;;;;10377568;28;20691;-77
2024/01/25 21:23:44;;;;;;;11.97;8.50;;;10.20;35.70;;;;;;10378869;28;20220;-78
2024/01/25 21:28:47;;;;;;;14.60;8.50;;;10.20;35.90;;;;;;10398750;28;21071;-78
2024/01/25 21:33:50;;;;;;;13.77;8.40;;;10.10;35.90;;;;;;10396115;28;20258;-78
2024/01/25 21:38:55;;;;;;;12.80;7.83;;;10.00;36.00;;;;;;10394840;28;20256;-79
2024/01/25 21:43:58;;;;;;;10.37;6.40;;;10.00;36.30;;;;;;10392420;28;20272;-79
2024/01/25 21:49:02;;;;;;;6.97;3.73;;;9.90;37.50;;;;;;10393417;28;20298;-78
2024/01/25 21:54:07;;;;;;;7.97;3.47;;;9.90;38.50;;;;;;10402858;28;20228;-79
2024/01/25 21:59:10;;;;;;;8.30;3.33;;;9.90;39.50;;;;;;10402852;28;20237;-79
2024/01/25 22:04:14;;;;;;;4.40;3.00;;;10.00;38.50;;;;;;10399559;28;20914;-78
2024/01/25 22:09:19;;;;;;;6.13;2.90;;;10.10;38.80;;;;;;10401721;28;20236;-79
2024/01/25 22:14:22;;;;;;;5.90;3.27;;;10.10;39.30;;;;;;10400121;28;20625;-78
2024/01/25 22:19:25;;;;;;;4.07;2.70;;;10.20;38.90;;;;;;10404513;28;20305;-78
2024/01/25 22:24:30;;;;;;;6.17;2.97;;;10.20;38.90;;;;;;10400520;28;20233;-78
2024/01/25 22:29:34;;;;;;;4.37;2.87;;;10.30;39.50;;;;;;10400749;28;20320;-78
2024/01/25 22:34:38;;;;;;;6.53;2.80;;;10.40;39.00;;;;;;10395536;28;20293;-78
2024/01/25 22:39:43;;;;;;;4.27;2.70;;;10.40;38.90;;;;;;10404179;28;20228;-78
2024/01/25 22:44:46;;;;;;;5.40;3.10;;;10.50;39.40;;;;;;10398572;28;20225;-78
2024/01/25 22:49:50;;;;;;;6.87;3.43;;;10.60;39.00;;;;;;10401457;28;20260;-78
2024/01/25 22:54:54;;;;;;;5.57;3.80;;;10.60;38.90;;;;;;10403045;28;20241;-79
2024/01/25 22:59:58;;;;;;;8.13;4.57;;;10.60;39.30;;;;;;10413201;28;20225;-78
2024/01/25 23:05:02;;;;;;;7.67;4.33;;;10.60;38.90;;;;;;10409847;28;20222;-78
2024/01/25 23:10:07;;;;;;;6.33;4.13;;;10.60;38.90;;;;;;10413268;28;20242;-78
2024/01/25 23:15:10;;;;;;;6.70;4.50;;;10.60;39.60;;;;;;10405540;28;20313;-78
2024/01/25 23:20:14;;;;;;;6.23;3.90;;;10.60;39.00;;;;;;10412039;28;20657;-78
2024/01/25 23:25:19;;;;;;;9.30;5.63;;;10.50;39.10;;;;;;10410938;28;20674;-78
2024/01/25 23:30:22;;;;;;;6.40;4.03;;;10.50;39.70;;;;;;10409761;28;20288;-78
2024/01/25 23:35:26;;;;;;;7.77;4.80;;;10.40;39.40;;;;;;10410835;28;20226;-78
2024/01/25 23:40:31;;;;;;;7.77;4.90;;;10.40;39.60;;;;;;10408285;28;20293;-78
2024/01/25 23:45:35;;;;;;;6.47;4.60;;;10.40;40.30;;;;;;10405224;28;20229;-78
2024/01/25 23:50:38;;;;;;;11.20;5.87;;;10.50;39.60;;;;;;10414430;28;20239;-78
2024/01/25 23:55:44;;;;;;;8.70;6.33;;;10.50;39.60;;;;;;10413451;28;20226;-78
